createdAt,value
2019-02-23T00:01:16.655Z,103461.00
2019-02-23T00:03:47.679Z,103451.00
2019-02-23T00:06:29.017Z,103453.00
2019-02-23T00:08:50.640Z,103454.00
2019-02-23T00:11:21.611Z,103444.00
2019-02-23T00:13:52.149Z,103445.00
2019-02-23T00:16:22.883Z,103444.00
2019-02-23T00:18:53.332Z,103438.00
2019-02-23T00:21:24.073Z,103451.00
2019-02-23T00:23:54.700Z,103439.00
2019-02-23T00:26:25.482Z,103436.00
2019-02-23T00:28:55.993Z,103444.00
2019-02-23T00:31:26.895Z,103438.00
2019-02-23T00:33:57.895Z,103437.00
2019-02-23T00:36:28.523Z,103436.00
2019-02-23T00:38:59.200Z,103424.00
2019-02-23T00:41:29.824Z,103444.00
2019-02-23T00:44:01.799Z,103450.00
2019-02-23T00:46:32.513Z,103440.00
2019-02-23T00:49:03.373Z,103438.00
2019-02-23T00:51:33.896Z,103425.00
2019-02-23T00:54:04.686Z,103433.00
2019-02-23T00:56:35.166Z,103440.00
2019-02-23T00:59:07.409Z,103432.00
2019-02-23T01:01:38.263Z,103433.00
2019-02-23T01:04:08.955Z,103446.00
2019-02-23T01:06:39.503Z,103435.00
2019-02-23T01:09:10.292Z,103443.00
2019-02-23T01:11:41.091Z,103438.00
2019-02-23T01:14:11.932Z,103432.00
2019-02-23T01:16:42.848Z,103438.00
2019-02-23T01:19:13.604Z,103425.00
2019-02-23T01:21:44.119Z,103416.00
2019-02-23T01:24:14.549Z,103403.00
2019-02-23T01:26:45.340Z,103391.00
2019-02-23T01:29:16.941Z,103386.00
2019-02-23T01:31:47.703Z,103380.00
2019-02-23T01:34:18.246Z,103383.00
2019-02-23T01:36:48.812Z,103367.00
2019-02-23T01:39:19.709Z,103369.00
2019-02-23T01:41:50.536Z,103362.00
2019-02-23T01:44:22.322Z,103375.00
2019-02-23T01:46:55.221Z,103379.00
2019-02-23T01:49:25.805Z,103380.00
2019-02-23T01:51:56.541Z,103379.00
2019-02-23T01:54:27.227Z,103368.00
2019-02-23T01:56:57.713Z,103366.00
2019-02-23T01:59:28.743Z,103361.00
2019-02-23T02:02:00.671Z,103351.00
2019-02-23T02:04:31.602Z,103353.00
2019-02-23T02:07:02.653Z,103340.00
2019-02-23T02:09:33.414Z,103338.00
2019-02-23T02:12:04.213Z,103343.00
2019-02-23T02:14:34.972Z,103344.00
2019-02-23T02:17:05.926Z,103344.00
2019-02-23T02:19:36.548Z,103339.00
2019-02-23T02:22:07.272Z,103328.00
2019-02-23T02:24:37.898Z,103314.00
2019-02-23T02:27:08.470Z,103317.00
2019-02-23T02:29:39.192Z,103315.00
2019-02-23T02:32:09.920Z,103316.00
2019-02-23T02:34:40.875Z,103305.00
2019-02-23T02:37:11.403Z,103310.00
2019-02-23T02:39:42.403Z,103303.00
2019-02-23T02:42:13.332Z,103299.00
2019-02-23T02:44:44.409Z,103300.00
2019-02-23T02:47:15.431Z,103304.00
2019-02-23T02:49:46.075Z,103308.00
2019-02-23T02:52:16.667Z,103309.00
2019-02-23T02:54:49.024Z,103300.00
2019-02-23T02:57:19.890Z,103298.00
2019-02-23T02:59:50.487Z,103309.00
2019-02-23T03:02:21.341Z,103308.00
2019-02-23T03:04:51.872Z,103314.00
2019-02-23T03:07:22.273Z,103309.00
2019-02-23T03:09:53.195Z,103316.00
2019-02-23T03:12:24.000Z,103310.00
2019-02-23T03:14:54.630Z,103313.00
2019-02-23T03:17:25.519Z,103315.00
2019-02-23T03:19:56.324Z,103331.00
2019-02-23T03:22:27.140Z,103334.00
2019-02-23T03:24:57.787Z,103331.00
2019-02-23T03:27:28.480Z,103323.00
2019-02-23T03:29:59.054Z,103329.00
2019-02-23T03:32:29.929Z,103330.00
2019-02-23T03:35:00.414Z,103329.00
2019-02-23T03:37:31.538Z,103331.00
2019-02-23T03:40:03.523Z,103328.00
2019-02-23T03:42:33.828Z,103324.00
2019-02-23T03:45:08.502Z,103329.00
2019-02-23T03:47:41.862Z,103321.00
2019-02-23T03:50:14.155Z,103327.00
2019-02-23T03:52:44.914Z,103321.00
2019-02-23T03:55:17.020Z,103326.00
2019-02-23T03:57:47.836Z,103316.00
2019-02-23T04:00:20.081Z,103305.00
2019-02-23T04:02:50.718Z,103318.00
2019-02-23T04:05:21.386Z,103316.00
2019-02-23T04:07:52.218Z,103329.00
2019-02-23T04:10:24.649Z,103323.00
2019-02-23T04:12:55.427Z,103322.00
2019-02-23T04:15:26.105Z,103323.00
2019-02-23T04:17:56.965Z,103332.00
2019-02-23T04:20:27.792Z,103326.00
2019-02-23T04:22:58.850Z,103323.00
2019-02-23T04:25:29.568Z,103323.00
2019-02-23T04:28:00.228Z,103331.00
2019-02-23T04:30:30.652Z,103352.00
2019-02-23T04:33:01.752Z,103354.00
2019-02-23T04:35:32.288Z,103356.00
2019-02-23T04:38:03.255Z,103360.00
2019-02-23T04:40:35.292Z,103366.00
2019-02-23T04:43:10.200Z,103371.00
2019-02-23T04:45:42.108Z,103360.00
2019-02-23T04:48:12.697Z,103361.00
2019-02-23T04:50:43.152Z,103374.00
2019-02-23T04:53:13.684Z,103367.00
2019-02-23T04:55:44.244Z,103358.00
2019-02-23T04:58:14.801Z,103366.00
2019-02-23T05:00:45.364Z,103359.00
2019-02-23T05:03:16.011Z,103367.00
2019-02-23T05:05:46.636Z,103378.00
2019-02-23T05:08:17.224Z,103374.00
2019-02-23T05:10:47.880Z,103370.00
2019-02-23T05:13:18.328Z,103376.00
2019-02-23T05:15:49.130Z,103385.00
2019-02-23T05:18:19.756Z,103388.00
2019-02-23T05:20:50.306Z,103412.00
2019-02-23T05:23:20.705Z,103411.00
2019-02-23T05:25:51.359Z,103391.00
2019-02-23T05:28:22.244Z,103402.00
2019-02-23T05:30:52.618Z,103398.00
2019-02-23T05:33:22.959Z,103393.00
2019-02-23T05:35:53.358Z,103397.00
2019-02-23T05:38:23.933Z,103391.00
2019-02-23T05:40:54.440Z,103396.00
2019-02-23T05:43:24.977Z,103376.00
2019-02-23T05:45:55.934Z,103380.00
2019-02-23T05:48:26.302Z,103383.00
2019-02-23T05:50:56.736Z,103386.00
2019-02-23T05:53:30.498Z,103401.00
2019-02-23T05:56:00.784Z,103388.00
2019-02-23T05:58:31.026Z,103391.00
2019-02-23T06:01:01.309Z,103385.00
2019-02-23T06:03:31.654Z,103387.00
2019-02-23T06:06:02.092Z,103390.00
2019-02-23T06:08:32.532Z,103386.00
2019-02-23T06:11:02.811Z,103384.00
2019-02-23T06:13:33.439Z,103396.00
2019-02-23T06:16:04.587Z,103386.00
2019-02-23T06:18:35.401Z,103387.00
2019-02-23T06:21:06.041Z,103391.00
2019-02-23T06:23:36.793Z,103395.00
2019-02-23T06:26:08.185Z,103402.00
2019-02-23T06:28:38.758Z,103412.00
2019-02-23T06:31:09.835Z,103412.00
2019-02-23T06:33:40.843Z,103422.00
2019-02-23T06:36:14.637Z,103435.00
2019-02-23T06:38:45.680Z,103427.00
2019-02-23T06:41:16.985Z,103415.00
2019-02-23T06:43:51.847Z,103431.00
2019-02-23T06:46:23.129Z,103437.00
2019-02-23T06:48:54.055Z,103451.00
2019-02-23T06:51:25.175Z,103445.00
2019-02-23T06:53:56.275Z,103449.00
2019-02-23T06:56:27.521Z,103436.00
2019-02-23T06:58:58.781Z,103442.00
2019-02-23T07:01:29.577Z,103447.00
2019-02-23T07:04:00.918Z,103432.00
2019-02-23T07:06:32.191Z,103431.00
2019-02-23T07:09:04.397Z,103439.00
2019-02-23T07:11:36.153Z,103427.00
2019-02-23T07:14:07.786Z,103422.00
2019-02-23T07:16:39.109Z,103428.00
2019-02-23T07:19:10.366Z,103433.00
2019-02-23T07:21:41.551Z,103432.00
2019-02-23T07:24:13.091Z,103425.00
2019-02-23T07:26:44.387Z,103420.00
2019-02-23T07:29:15.738Z,103418.00
2019-02-23T07:31:47.098Z,103422.00
2019-02-23T07:34:18.312Z,103423.00
2019-02-23T07:36:49.511Z,103437.00
2019-02-23T07:39:20.811Z,103432.00
2019-02-23T07:41:52.239Z,103418.00
2019-02-23T07:44:23.439Z,103420.00
2019-02-23T07:46:54.265Z,103430.00
2019-02-23T07:49:25.328Z,103425.00
2019-02-23T07:51:57.909Z,103423.00
2019-02-23T07:54:29.267Z,103402.00
2019-02-23T07:57:21.955Z,103400.00
2019-02-23T07:59:53.495Z,103417.00
2019-02-23T08:02:27.618Z,103423.00
2019-02-23T08:04:59.026Z,103413.00
2019-02-23T08:07:30.084Z,103411.00
2019-02-23T08:10:01.217Z,103422.00
2019-02-23T08:12:32.689Z,103422.00
2019-02-23T08:15:03.836Z,103416.00
2019-02-23T08:17:35.036Z,103426.00
2019-02-23T08:20:06.194Z,103423.00
2019-02-23T08:22:37.725Z,103420.00
2019-02-23T08:25:09.028Z,103403.00
2019-02-23T08:27:39.797Z,103401.00
2019-02-23T08:30:12.119Z,103401.00
2019-02-23T08:32:43.096Z,103391.00
2019-02-23T08:35:13.747Z,103396.00
2019-02-23T08:37:44.967Z,103390.00
2019-02-23T08:40:16.287Z,103391.00
2019-02-23T08:42:47.538Z,103392.00
2019-02-23T08:45:19.295Z,103399.00
2019-02-23T08:47:51.054Z,103393.00
2019-02-23T08:50:22.660Z,103384.00
2019-02-23T08:52:53.692Z,103385.00
2019-02-23T08:55:27.629Z,103382.00
2019-02-23T08:57:57.558Z,103376.00
2019-02-23T09:00:30.781Z,103369.00
2019-02-23T09:03:02.000Z,103377.00
2019-02-23T09:05:35.024Z,103394.00
2019-02-23T09:08:05.891Z,103408.00
2019-02-23T09:10:36.980Z,103421.00
2019-02-23T09:13:07.745Z,103404.00
2019-02-23T09:15:39.283Z,103419.00
2019-02-23T09:18:10.478Z,103410.00
2019-02-23T09:20:41.920Z,103410.00
2019-02-23T09:23:13.501Z,103392.00
2019-02-23T09:25:47.436Z,103391.00
2019-02-23T09:28:18.584Z,103381.00
2019-02-23T09:30:49.504Z,103393.00
2019-02-23T09:33:20.552Z,103388.00
2019-02-23T09:35:54.948Z,103382.00
2019-02-23T09:38:26.282Z,103384.00
2019-02-23T09:40:57.679Z,103367.00
2019-02-23T09:43:28.554Z,103360.00
2019-02-23T09:46:00.330Z,103362.00
2019-02-23T09:48:35.203Z,103366.00
2019-02-23T09:51:06.320Z,103372.00
2019-02-23T09:53:40.390Z,103373.00
2019-02-23T09:56:11.254Z,103374.00
2019-02-23T09:58:41.956Z,103377.00
2019-02-23T10:01:13.354Z,103379.00
2019-02-23T10:03:44.536Z,103381.00
2019-02-23T10:06:15.355Z,103373.00
2019-02-23T10:08:49.716Z,103364.00
2019-02-23T10:11:20.790Z,103384.00
2019-02-23T10:13:51.944Z,103383.00
2019-02-23T10:16:22.816Z,103369.00
2019-02-23T10:18:56.934Z,103378.00
2019-02-23T10:21:29.362Z,103371.00
2019-02-23T10:24:00.209Z,103364.00
2019-02-23T10:26:31.538Z,103364.00
2019-02-23T10:29:02.639Z,103349.00
2019-02-23T10:31:33.338Z,103366.00
2019-02-23T10:34:04.538Z,103365.00
2019-02-23T10:36:35.716Z,103351.00
2019-02-23T10:39:07.361Z,103348.00
2019-02-23T10:41:38.320Z,103354.00
2019-02-23T10:44:09.380Z,103363.00
2019-02-23T10:46:40.340Z,103349.00
2019-02-23T10:49:11.270Z,103357.00
2019-02-23T10:51:42.737Z,103359.00
2019-02-23T10:54:13.826Z,103371.00
2019-02-23T10:56:44.454Z,103371.00
2019-02-23T10:59:16.090Z,103372.00
2019-02-23T11:01:47.292Z,103376.00
2019-02-23T11:04:26.210Z,103373.00
2019-02-23T11:07:00.344Z,103366.00
2019-02-23T11:09:34.066Z,103356.00
2019-02-23T11:12:05.327Z,103343.00
2019-02-23T11:14:39.732Z,103343.00
2019-02-23T11:17:11.779Z,103343.00
2019-02-23T11:19:42.972Z,103329.00
2019-02-23T11:22:14.002Z,103316.00
2019-02-23T11:24:45.203Z,103324.00
2019-02-23T11:27:16.807Z,103320.00
2019-02-23T11:29:47.880Z,103313.00
2019-02-23T11:32:19.050Z,103323.00
2019-02-23T11:34:50.116Z,103311.00
2019-02-23T11:37:23.728Z,103321.00
2019-02-23T11:39:55.039Z,103318.00
2019-02-23T11:42:26.336Z,103328.00
2019-02-23T11:44:57.673Z,103327.00
2019-02-23T11:47:28.792Z,103320.00
2019-02-23T11:50:00.402Z,103310.00
2019-02-23T11:52:31.185Z,103309.00
2019-02-23T11:55:02.759Z,103310.00
2019-02-23T11:57:33.830Z,103299.00
2019-02-23T12:00:05.179Z,103295.00
2019-02-23T12:02:36.909Z,103290.00
2019-02-23T12:05:08.299Z,103287.00
2019-02-23T12:07:39.319Z,103286.00
2019-02-23T12:10:12.176Z,103279.00
2019-02-23T12:12:43.332Z,103296.00
2019-02-23T12:15:14.565Z,103287.00
2019-02-23T12:17:46.186Z,103299.00
2019-02-23T12:20:18.154Z,103303.00
2019-02-23T12:22:49.341Z,103298.00
2019-02-23T12:25:20.560Z,103307.00
2019-02-23T12:27:51.855Z,103307.00
2019-02-23T12:30:23.079Z,103317.00
2019-02-23T12:32:54.428Z,103308.00
2019-02-23T12:35:27.101Z,103308.00
2019-02-23T12:37:57.857Z,103304.00
2019-02-23T12:40:29.082Z,103295.00
2019-02-23T12:43:00.381Z,103294.00
2019-02-23T12:45:32.794Z,103286.00
2019-02-23T12:48:03.949Z,103283.00
2019-02-23T12:50:34.941Z,103283.00
2019-02-23T12:53:05.845Z,103298.00
2019-02-23T12:55:37.083Z,103285.00
2019-02-23T12:58:07.944Z,103289.00
2019-02-23T13:00:38.740Z,103283.00
2019-02-23T13:03:09.530Z,103290.00
2019-02-23T13:05:42.669Z,103289.00
2019-02-23T13:08:14.036Z,103269.00
2019-02-23T13:10:44.870Z,103271.00
2019-02-23T13:13:37.142Z,103268.00
2019-02-23T13:16:42.151Z,103252.00
2019-02-23T13:20:08.207Z,103241.00
2019-02-23T13:23:12.524Z,103243.00
2019-02-23T13:26:33.405Z,103235.00
2019-02-23T13:29:24.510Z,103252.00
2019-02-23T13:32:27.085Z,103252.00
2019-02-23T13:35:34.465Z,103240.00
2019-02-23T13:38:48.861Z,103241.00
2019-02-23T13:42:05.561Z,103230.00
2019-02-23T13:45:00.048Z,103227.00
2019-02-23T13:48:01.859Z,103210.00
2019-02-23T13:51:11.114Z,103198.00
2019-02-23T13:54:26.515Z,103201.00
2019-02-23T13:57:19.467Z,103199.00
2019-02-23T14:00:12.718Z,103185.00
2019-02-23T14:03:30.895Z,103188.00
2019-02-23T14:06:37.896Z,103181.00
2019-02-23T14:09:48.419Z,103186.00
2019-02-23T14:12:48.264Z,103194.00
2019-02-23T14:15:41.433Z,103190.00
2019-02-23T14:18:39.566Z,103187.00
2019-02-23T14:21:52.896Z,103195.00
2019-02-23T14:24:50.223Z,103199.00
2019-02-23T14:27:33.228Z,103203.00
2019-02-23T14:30:48.129Z,103194.00
2019-02-23T14:34:05.651Z,103204.00
2019-02-23T14:36:47.623Z,103196.00
2019-02-23T14:39:56.833Z,103192.00
2019-02-23T14:43:20.951Z,103174.00
2019-02-23T14:46:31.472Z,103179.00
2019-02-23T14:49:44.401Z,103174.00
2019-02-23T14:53:03.034Z,103182.00
2019-02-23T14:56:09.020Z,103180.00
2019-02-23T14:59:24.442Z,103176.00
2019-02-23T15:02:25.829Z,103175.00
2019-02-23T15:05:35.111Z,103184.00
2019-02-23T15:08:34.527Z,103186.00
2019-02-23T15:11:53.301Z,103187.00
2019-02-23T15:14:42.444Z,103174.00
2019-02-23T15:17:50.285Z,103180.00
2019-02-23T15:20:40.089Z,103176.00
2019-02-23T15:23:45.289Z,103193.00
2019-02-23T15:27:00.405Z,103178.00
2019-02-23T15:29:40.949Z,103184.00
2019-02-23T15:32:39.664Z,103191.00
2019-02-23T15:35:52.397Z,103182.00
2019-02-23T15:38:53.293Z,103177.00
2019-02-23T15:42:02.204Z,103175.00
2019-02-23T15:45:12.680Z,103171.00
2019-02-23T15:47:55.941Z,103175.00
2019-02-23T15:50:27.833Z,103180.00
2019-02-23T15:52:58.846Z,103181.00
2019-02-23T15:55:29.975Z,103171.00
2019-02-23T15:58:00.911Z,103170.00
2019-02-23T16:00:34.920Z,103174.00
2019-02-23T16:03:04.495Z,103169.00
2019-02-23T16:05:37.189Z,103170.00
2019-02-23T16:08:08.219Z,103176.00
2019-02-23T16:10:39.022Z,103169.00
2019-02-23T16:13:09.926Z,103174.00
2019-02-23T16:15:40.880Z,103170.00
2019-02-23T16:18:12.414Z,103178.00
2019-02-23T16:20:43.102Z,103173.00
2019-02-23T16:23:13.877Z,103182.00
2019-02-23T16:25:45.164Z,103175.00
2019-02-23T16:28:16.483Z,103173.00
2019-02-23T16:30:47.635Z,103164.00
2019-02-23T16:33:18.640Z,103173.00
2019-02-23T16:35:49.517Z,103177.00
2019-02-23T16:38:21.119Z,103184.00
2019-02-23T16:40:52.434Z,103176.00
2019-02-23T16:43:23.108Z,103185.00
2019-02-23T16:45:53.967Z,103179.00
2019-02-23T16:48:27.363Z,103184.00
2019-02-23T16:50:58.076Z,103183.00
2019-02-23T16:53:29.345Z,103183.00
2019-02-23T16:55:59.742Z,103171.00
2019-02-23T16:58:32.330Z,103179.00
2019-02-23T17:01:04.425Z,103180.00
2019-02-23T17:03:34.833Z,103186.00
2019-02-23T17:06:05.320Z,103175.00
2019-02-23T17:08:35.652Z,103182.00
2019-02-23T17:11:06.010Z,103179.00
2019-02-23T17:13:38.839Z,103174.00
2019-02-23T17:16:09.180Z,103176.00
2019-02-23T17:18:39.853Z,103179.00
2019-02-23T17:21:10.206Z,103180.00
2019-02-23T17:23:40.698Z,103169.00
2019-02-23T17:26:11.414Z,103168.00
2019-02-23T17:28:42.076Z,103171.00
2019-02-23T17:31:12.540Z,103173.00
2019-02-23T17:33:43.344Z,103166.00
2019-02-23T17:36:14.071Z,103164.00
2019-02-23T17:38:45.023Z,103165.00
2019-02-23T17:41:16.008Z,103167.00
2019-02-23T17:43:46.945Z,103170.00
2019-02-23T17:46:19.388Z,103163.00
2019-02-23T17:48:50.244Z,103164.00
2019-02-23T17:51:21.146Z,103161.00
2019-02-23T17:53:51.939Z,103157.00
2019-02-23T17:56:22.463Z,103166.00
2019-02-23T17:58:53.267Z,103162.00
2019-02-23T18:01:25.463Z,103175.00
2019-02-23T18:03:56.098Z,103170.00
2019-02-23T18:06:26.947Z,103175.00
2019-02-23T18:08:57.798Z,103161.00
2019-02-23T18:11:28.484Z,103151.00
2019-02-23T18:13:59.210Z,103173.00
2019-02-23T18:16:29.903Z,103166.00
2019-02-23T18:19:01.476Z,103161.00
2019-02-23T18:21:31.920Z,103158.00
2019-02-23T18:24:02.432Z,103166.00
2019-02-23T18:26:32.982Z,103151.00
2019-02-23T18:29:03.895Z,103167.00
2019-02-23T18:31:34.695Z,103147.00
2019-02-23T18:34:05.494Z,103141.00
2019-02-23T18:36:36.754Z,103148.00
2019-02-23T18:39:07.370Z,103146.00
2019-02-23T18:41:38.036Z,103140.00
2019-02-23T18:44:08.527Z,103137.00
2019-02-23T18:46:39.386Z,103139.00
2019-02-23T18:49:11.798Z,103140.00
2019-02-23T18:51:42.366Z,103144.00
2019-02-23T18:54:14.740Z,103143.00
2019-02-23T18:56:45.440Z,103145.00
2019-02-23T18:59:15.936Z,103137.00
2019-02-23T19:01:46.988Z,103138.00
2019-02-23T19:04:18.462Z,103145.00
2019-02-23T19:06:49.026Z,103138.00
2019-02-23T19:09:19.651Z,103132.00
2019-02-23T19:11:50.394Z,103138.00
2019-02-23T19:14:21.092Z,103135.00
2019-02-23T19:16:51.914Z,103141.00
2019-02-23T19:19:22.545Z,103134.00
2019-02-23T19:21:53.430Z,103130.00
2019-02-23T19:24:24.403Z,103130.00
2019-02-23T19:26:54.838Z,103132.00
2019-02-23T19:29:25.788Z,103129.00
2019-02-23T19:31:57.802Z,103142.00
2019-02-23T19:34:29.071Z,103132.00
2019-02-23T19:36:59.814Z,103134.00
2019-02-23T19:39:30.394Z,103137.00
2019-02-23T19:42:01.972Z,103125.00
2019-02-23T19:44:32.741Z,103139.00
2019-02-23T19:47:09.111Z,103144.00
2019-02-23T19:49:39.752Z,103137.00
2019-02-23T19:52:10.308Z,103140.00
2019-02-23T19:54:42.156Z,103153.00
2019-02-23T19:57:12.816Z,103132.00
2019-02-23T19:59:43.446Z,103136.00
2019-02-23T20:02:17.113Z,103132.00
2019-02-23T20:04:47.955Z,103134.00
2019-02-23T20:07:21.927Z,103131.00
2019-02-23T20:09:52.540Z,103123.00
2019-02-23T20:12:23.138Z,103128.00
2019-02-23T20:14:53.670Z,103124.00
2019-02-23T20:17:25.133Z,103126.00
2019-02-23T20:19:56.411Z,103135.00
2019-02-23T20:22:27.338Z,103138.00
2019-02-23T20:24:58.027Z,103128.00
2019-02-23T20:27:28.982Z,103134.00
2019-02-23T20:29:59.738Z,103136.00
2019-02-23T20:32:30.762Z,103137.00
2019-02-23T20:35:01.486Z,103130.00
2019-02-23T20:37:33.968Z,103133.00
2019-02-23T20:40:04.711Z,103127.00
2019-02-23T20:42:35.508Z,103127.00
2019-02-23T20:45:06.113Z,103129.00
2019-02-23T20:47:36.937Z,103132.00
2019-02-23T20:50:08.874Z,103131.00
2019-02-23T20:52:39.621Z,103135.00
2019-02-23T20:55:10.188Z,103141.00
2019-02-23T20:57:40.647Z,103144.00
2019-02-23T21:00:12.044Z,103144.00
2019-02-23T21:02:42.757Z,103143.00
2019-02-23T21:05:13.575Z,103135.00
2019-02-23T21:07:44.723Z,103134.00
2019-02-23T21:10:18.077Z,103140.00
2019-02-23T21:12:48.717Z,103138.00
2019-02-23T21:15:19.605Z,103145.00
2019-02-23T21:17:50.657Z,103145.00
2019-02-23T21:20:21.037Z,103148.00
2019-02-23T21:22:51.690Z,103155.00
2019-02-23T21:25:23.592Z,103155.00
2019-02-23T21:27:53.930Z,103147.00
2019-02-23T21:30:25.727Z,103163.00
2019-02-23T21:32:56.609Z,103155.00
2019-02-23T21:35:28.631Z,103160.00
2019-02-23T21:37:59.427Z,103158.00
2019-02-23T21:40:32.597Z,103163.00
2019-02-23T21:43:03.529Z,103165.00
2019-02-23T21:45:34.101Z,103148.00
2019-02-23T21:48:04.811Z,103159.00
2019-02-23T21:50:35.607Z,103162.00
2019-02-23T21:53:06.433Z,103171.00
2019-02-23T21:55:37.190Z,103161.00
2019-02-23T21:58:08.189Z,103164.00
2019-02-23T22:00:38.860Z,103161.00
2019-02-23T22:03:09.567Z,103160.00
2019-02-23T22:05:40.399Z,103163.00
2019-02-23T22:08:11.080Z,103154.00
2019-02-23T22:10:41.581Z,103168.00
2019-02-23T22:13:12.053Z,103163.00
2019-02-23T22:15:42.487Z,103159.00
2019-02-23T22:18:13.257Z,103152.00
2019-02-23T22:20:43.983Z,103148.00
2019-02-23T22:23:14.741Z,103143.00
2019-02-23T22:25:45.546Z,103137.00
2019-02-23T22:28:16.272Z,103142.00
2019-02-23T22:30:47.033Z,103144.00
2019-02-23T22:33:17.554Z,103134.00
2019-02-23T22:35:48.045Z,103144.00
2019-02-23T22:38:18.754Z,103133.00
2019-02-23T22:40:49.368Z,103136.00
2019-02-23T22:43:19.763Z,103137.00
2019-02-23T22:45:50.301Z,103141.00
2019-02-23T22:48:20.627Z,103136.00
2019-02-23T22:50:51.130Z,103138.00
2019-02-23T22:53:21.827Z,103133.00
2019-02-23T22:55:52.622Z,103140.00
2019-02-23T22:58:23.003Z,103133.00
2019-02-23T23:00:58.965Z,103138.00
2019-02-23T23:03:29.391Z,103128.00
2019-02-23T23:06:01.147Z,103126.00
2019-02-23T23:08:32.096Z,103126.00
2019-02-23T23:11:02.554Z,103133.00
2019-02-23T23:13:32.818Z,103123.00
2019-02-23T23:16:03.327Z,103119.00
2019-02-23T23:18:33.980Z,103117.00
2019-02-23T23:21:04.532Z,103119.00
2019-02-23T23:23:34.962Z,103121.00
2019-02-23T23:26:05.457Z,103125.00
2019-02-23T23:28:35.949Z,103109.00
2019-02-23T23:31:06.347Z,103124.00
2019-02-23T23:33:37.203Z,103126.00
2019-02-23T23:36:08.147Z,103124.00
2019-02-23T23:38:38.551Z,103117.00
2019-02-23T23:41:09.515Z,103125.00
2019-02-23T23:43:39.939Z,103111.00
2019-02-23T23:46:10.415Z,103117.00
2019-02-23T23:48:41.118Z,103101.00
2019-02-23T23:51:11.591Z,103105.00
2019-02-23T23:53:45.057Z,103110.00
2019-02-23T23:56:15.763Z,103114.00
2019-02-23T23:58:46.371Z,103113.00
